sensor_id;sensor_type;location;lat;lon;timestamp;pressure;altitude;pressure_sealevel;temperature;humidity
71638;BME280;59485;43.542;-5.676;2023-02-13T00:01:23;102755.38;;;6.12;100.00
71638;BME280;59485;43.542;-5.676;2023-02-13T00:14:09;102747.97;;;6.14;100.00
71638;BME280;59485;43.542;-5.676;2023-02-13T00:16:34;102747.00;;;6.15;100.00
71638;BME280;59485;43.542;-5.676;2023-02-13T00:24:29;102739.94;;;6.36;100.00
71638;BME280;59485;43.542;-5.676;2023-02-13T00:26:54;102741.97;;;6.46;100.00
71638;BME280;59485;43.542;-5.676;2023-02-13T00:29:20;102742.91;;;6.57;100.00
71638;BME280;59485;43.542;-5.676;2023-02-13T00:31:45;102750.75;;;6.62;100.00
71638;BME280;59485;43.542;-5.676;2023-02-13T00:36:49;102737.16;;;6.73;100.00
71638;BME280;59485;43.542;-5.676;2023-02-13T00:39:14;102736.06;;;6.75;100.00
71638;BME280;59485;43.542;-5.676;2023-02-13T00:41:39;102740.13;;;6.70;100.00
71638;BME280;59485;43.542;-5.676;2023-02-13T00:49:23;102737.16;;;6.49;100.00
71638;BME280;59485;43.542;-5.676;2023-02-13T00:54:23;102735.91;;;6.42;100.00
71638;BME280;59485;43.542;-5.676;2023-02-13T00:59:24;102738.84;;;6.39;100.00
71638;BME280;59485;43.542;-5.676;2023-02-13T01:04:24;102744.75;;;6.33;100.00
71638;BME280;59485;43.542;-5.676;2023-02-13T01:18:02;102745.72;;;6.08;100.00
71638;BME280;59485;43.542;-5.676;2023-02-13T01:20:31;102752.34;;;6.04;100.00
71638;BME280;59485;43.542;-5.676;2023-02-13T01:25:55;102749.13;;;5.99;100.00
71638;BME280;59485;43.542;-5.676;2023-02-13T01:28:20;102749.13;;;5.99;100.00
71638;BME280;59485;43.542;-5.676;2023-02-13T01:30:51;102744.34;;;5.90;100.00
71638;BME280;59485;43.542;-5.676;2023-02-13T01:33:16;102745.31;;;5.89;100.00
71638;BME280;59485;43.542;-5.676;2023-02-13T01:35:42;102743.47;;;5.89;100.00
71638;BME280;59485;43.542;-5.676;2023-02-13T01:43:23;102750.53;;;5.79;100.00
71638;BME280;59485;43.542;-5.676;2023-02-13T01:51:26;102747.69;;;5.68;100.00
71638;BME280;59485;43.542;-5.676;2023-02-13T02:01:31;102754.97;;;5.55;100.00
71638;BME280;59485;43.542;-5.676;2023-02-13T02:09:09;102752.50;;;5.52;100.00
71638;BME280;59485;43.542;-5.676;2023-02-13T02:11:39;102761.53;;;5.52;100.00
71638;BME280;59485;43.542;-5.676;2023-02-13T02:14:06;102760.88;;;5.49;100.00
71638;BME280;59485;43.542;-5.676;2023-02-13T02:19:13;102760.88;;;5.49;100.00
71638;BME280;59485;43.542;-5.676;2023-02-13T02:57:13;102762.50;;;5.51;100.00
71638;BME280;59485;43.542;-5.676;2023-02-13T02:59:39;102761.63;;;5.51;100.00
71638;BME280;59485;43.542;-5.676;2023-02-13T03:02:25;102761.53;;;5.52;100.00
71638;BME280;59485;43.542;-5.676;2023-02-13T03:05:23;102766.97;;;5.52;100.00
71638;BME280;59485;43.542;-5.676;2023-02-13T03:08:10;102770.31;;;5.56;100.00
71638;BME280;59485;43.542;-5.676;2023-02-13T03:10:35;102766.63;;;5.57;100.00
71638;BME280;59485;43.542;-5.676;2023-02-13T03:13:41;102763.81;;;5.58;100.00
71638;BME280;59485;43.542;-5.676;2023-02-13T03:26:34;102772.16;;;5.55;100.00
71638;BME280;59485;43.542;-5.676;2023-02-13T03:32:11;102777.28;;;5.47;100.00
71638;BME280;59485;43.542;-5.676;2023-02-13T03:34:43;102790.34;;;5.42;100.00
71638;BME280;59485;43.542;-5.676;2023-02-13T03:37:31;102780.13;;;5.46;100.00
71638;BME280;59485;43.542;-5.676;2023-02-13T03:40:29;102783.16;;;5.41;100.00
71638;BME280;59485;43.542;-5.676;2023-02-13T03:43:15;102783.28;;;5.40;100.00
71638;BME280;59485;43.542;-5.676;2023-02-13T03:45:43;102778.28;;;5.34;100.00
71638;BME280;59485;43.542;-5.676;2023-02-13T03:48:54;102784.16;;;5.27;100.00
71638;BME280;59485;43.542;-5.676;2023-02-13T03:51:46;102775.84;;;5.29;100.00
71638;BME280;59485;43.542;-5.676;2023-02-13T03:54:56;102780.56;;;5.27;100.00
71638;BME280;59485;43.542;-5.676;2023-02-13T03:57:20;102777.38;;;5.20;100.00
71638;BME280;59485;43.542;-5.676;2023-02-13T04:00:06;102783.34;;;5.13;100.00
71638;BME280;59485;43.542;-5.676;2023-02-13T04:02:35;102787.28;;;5.09;100.00
71638;BME280;59485;43.542;-5.676;2023-02-13T04:05:15;102782.91;;;5.06;100.00
71638;BME280;59485;43.542;-5.676;2023-02-13T04:07:43;102788.78;;;5.00;100.00
71638;BME280;59485;43.542;-5.676;2023-02-13T04:10:09;102788.88;;;4.99;100.00
71638;BME280;59485;43.542;-5.676;2023-02-13T04:17:51;102796.44;;;4.94;100.00
71638;BME280;59485;43.542;-5.676;2023-02-13T04:20:18;102789.88;;;4.83;100.00
71638;BME280;59485;43.542;-5.676;2023-02-13T04:22:46;102793.59;;;4.82;100.00
71638;BME280;59485;43.542;-5.676;2023-02-13T04:25:13;102795.56;;;4.80;100.00
71638;BME280;59485;43.542;-5.676;2023-02-13T04:27:39;102792.06;;;4.78;100.00
71638;BME280;59485;43.542;-5.676;2023-02-13T04:30:05;102797.59;;;4.77;100.00
71638;BME280;59485;43.542;-5.676;2023-02-13T04:32:30;102799.66;;;4.73;100.00
71638;BME280;59485;43.542;-5.676;2023-02-13T04:34:56;102797.91;;;4.72;100.00
71638;BME280;59485;43.542;-5.676;2023-02-13T04:37:21;102798.97;;;4.70;100.00
71638;BME280;59485;43.542;-5.676;2023-02-13T04:39:46;102801.59;;;4.71;100.00
71638;BME280;59485;43.542;-5.676;2023-02-13T04:42:12;102807.47;;;4.65;100.00
71638;BME280;59485;43.542;-5.676;2023-02-13T04:44:37;102811.00;;;4.66;100.00
71638;BME280;59485;43.542;-5.676;2023-02-13T04:47:02;102807.47;;;4.65;100.00
71638;BME280;59485;43.542;-5.676;2023-02-13T04:49:28;102807.22;;;4.68;100.00
71638;BME280;59485;43.542;-5.676;2023-02-13T04:51:53;102805.81;;;4.63;100.00
71638;BME280;59485;43.542;-5.676;2023-02-13T04:54:18;102803.28;;;4.60;100.00
71638;BME280;59485;43.542;-5.676;2023-02-13T04:56:44;102810.38;;;4.62;100.00
71638;BME280;59485;43.542;-5.676;2023-02-13T04:59:09;102813.09;;;4.62;100.00
71638;BME280;59485;43.542;-5.676;2023-02-13T05:01:37;102804.94;;;4.62;100.00
71638;BME280;59485;43.542;-5.676;2023-02-13T05:04:02;102802.13;;;4.64;100.00
71638;BME280;59485;43.542;-5.676;2023-02-13T05:06:28;102809.41;;;4.63;100.00
71638;BME280;59485;43.542;-5.676;2023-02-13T05:08:53;102816.56;;;4.64;100.00
71638;BME280;59485;43.542;-5.676;2023-02-13T05:11:18;102824.91;;;4.61;100.00
71638;BME280;59485;43.542;-5.676;2023-02-13T05:13:44;102820.81;;;4.68;100.00
71638;BME280;59485;43.542;-5.676;2023-02-13T05:16:09;102830.72;;;4.69;100.00
71638;BME280;59485;43.542;-5.676;2023-02-13T05:18:34;102830.28;;;4.75;100.00
71638;BME280;59485;43.542;-5.676;2023-02-13T05:21:00;102821.16;;;4.76;100.00
71638;BME280;59485;43.542;-5.676;2023-02-13T05:23:44;102825.63;;;4.77;100.00
71638;BME280;59485;43.542;-5.676;2023-02-13T05:26:09;102821.84;;;4.80;100.00
71638;BME280;59485;43.542;-5.676;2023-02-13T05:28:34;102826.84;;;4.86;100.00
71638;BME280;59485;43.542;-5.676;2023-02-13T05:31:18;102826.47;;;4.92;100.00
71638;BME280;59485;43.542;-5.676;2023-02-13T05:33:43;102825.78;;;4.88;100.00
71638;BME280;59485;43.542;-5.676;2023-02-13T05:36:09;102818.09;;;4.95;100.00
71638;BME280;59485;43.542;-5.676;2023-02-13T05:38:34;102820.19;;;5.04;100.00
71638;BME280;59485;43.542;-5.676;2023-02-13T05:41:00;102821.06;;;5.05;100.00
71638;BME280;59485;43.542;-5.676;2023-02-13T05:43:26;102815.41;;;5.08;100.00
71638;BME280;59485;43.542;-5.676;2023-02-13T05:45:59;102814.88;;;5.15;100.00
71638;BME280;59485;43.542;-5.676;2023-02-13T05:48:27;102817.41;;;5.18;100.00
71638;BME280;59485;43.542;-5.676;2023-02-13T05:50:52;102817.06;;;5.23;100.00
71638;BME280;59485;43.542;-5.676;2023-02-13T05:53:18;102815.91;;;5.27;100.00
71638;BME280;59485;43.542;-5.676;2023-02-13T05:55:43;102818.50;;;5.28;100.00
71638;BME280;59485;43.542;-5.676;2023-02-13T05:58:08;102819.06;;;5.34;100.00
71638;BME280;59485;43.542;-5.676;2023-02-13T06:00:35;102818.00;;;5.36;100.00
71638;BME280;59485;43.542;-5.676;2023-02-13T06:03:01;102816.88;;;5.39;100.00
71638;BME280;59485;43.542;-5.676;2023-02-13T06:05:26;102814.63;;;5.45;100.00
71638;BME280;59485;43.542;-5.676;2023-02-13T06:07:52;102824.41;;;5.48;100.00
71638;BME280;59485;43.542;-5.676;2023-02-13T06:10:17;102817.88;;;5.50;100.00
71638;BME280;59485;43.542;-5.676;2023-02-13T06:12:42;102825.59;;;5.56;100.00
71638;BME280;59485;43.542;-5.676;2023-02-13T06:15:08;102822.34;;;5.64;100.00
71638;BME280;59485;43.542;-5.676;2023-02-13T06:17:33;102820.28;;;5.68;100.00
71638;BME280;59485;43.542;-5.676;2023-02-13T06:19:59;102824.41;;;5.73;100.00
71638;BME280;59485;43.542;-5.676;2023-02-13T06:22:24;102815.16;;;5.76;100.00
71638;BME280;59485;43.542;-5.676;2023-02-13T06:24:49;102820.41;;;5.79;100.00
71638;BME280;59485;43.542;-5.676;2023-02-13T06:27:14;102821.91;;;5.83;100.00
71638;BME280;59485;43.542;-5.676;2023-02-13T06:29:40;102821.59;;;5.87;100.00
71638;BME280;59485;43.542;-5.676;2023-02-13T06:32:05;102823.03;;;5.93;100.00
71638;BME280;59485;43.542;-5.676;2023-02-13T06:34:31;102825.53;;;5.96;100.00
71638;BME280;59485;43.542;-5.676;2023-02-13T06:36:56;102822.72;;;5.97;100.00
71638;BME280;59485;43.542;-5.676;2023-02-13T06:39:21;102823.13;;;6.04;100.00
71638;BME280;59485;43.542;-5.676;2023-02-13T06:41:47;102826.53;;;6.08;100.00
71638;BME280;59485;43.542;-5.676;2023-02-13T06:44:12;102837.06;;;6.12;100.00
71638;BME280;59485;43.542;-5.676;2023-02-13T06:46:40;102830.44;;;6.16;100.00
71638;BME280;59485;43.542;-5.676;2023-02-13T06:49:06;102832.28;;;6.16;100.00
71638;BME280;59485;43.542;-5.676;2023-02-13T06:51:31;102839.22;;;6.20;100.00
71638;BME280;59485;43.542;-5.676;2023-02-13T06:53:56;102843.38;;;6.25;100.00
71638;BME280;59485;43.542;-5.676;2023-02-13T06:56:22;102836.06;;;6.26;100.00
71638;BME280;59485;43.542;-5.676;2023-02-13T06:58:47;102841.38;;;6.27;100.00
71638;BME280;59485;43.542;-5.676;2023-02-13T07:01:13;102837.47;;;6.31;100.00
71638;BME280;59485;43.542;-5.676;2023-02-13T07:03:38;102841.94;;;6.32;100.00
71638;BME280;59485;43.542;-5.676;2023-02-13T07:06:03;102838.22;;;6.33;100.00
71638;BME280;59485;43.542;-5.676;2023-02-13T07:08:29;102841.69;;;6.35;100.00
71638;BME280;59485;43.542;-5.676;2023-02-13T07:10:54;102841.69;;;6.35;100.00
71638;BME280;59485;43.542;-5.676;2023-02-13T07:13:20;102838.97;;;6.35;100.00
71638;BME280;59485;43.542;-5.676;2023-02-13T07:15:45;102850.63;;;6.37;100.00
71638;BME280;59485;43.542;-5.676;2023-02-13T07:18:11;102856.19;;;6.36;100.00
71638;BME280;59485;43.542;-5.676;2023-02-13T07:20:36;102850.72;;;6.36;100.00
71638;BME280;59485;43.542;-5.676;2023-02-13T07:23:02;102852.72;;;6.34;100.00
71638;BME280;59485;43.542;-5.676;2023-02-13T07:25:28;102844.41;;;6.35;100.00
71638;BME280;59485;43.542;-5.676;2023-02-13T07:27:54;102848.88;;;6.36;100.00
71638;BME280;59485;43.542;-5.676;2023-02-13T07:30:19;102855.09;;;6.38;100.00
71638;BME280;59485;43.542;-5.676;2023-02-13T07:32:45;102861.19;;;6.42;100.00
71638;BME280;59485;43.542;-5.676;2023-02-13T07:35:10;102854.00;;;6.41;100.00
71638;BME280;59485;43.542;-5.676;2023-02-13T07:37:35;102862.81;;;6.45;100.00
71638;BME280;59485;43.542;-5.676;2023-02-13T07:40:01;102855.50;;;6.45;100.00
71638;BME280;59485;43.542;-5.676;2023-02-13T07:42:28;102855.19;;;6.50;100.00
71638;BME280;59485;43.542;-5.676;2023-02-13T07:44:53;102863.97;;;6.53;100.00
71638;BME280;59485;43.542;-5.676;2023-02-13T07:47:18;102863.66;;;6.58;100.00
71638;BME280;59485;43.542;-5.676;2023-02-13T07:49:44;102871.38;;;6.64;100.00
71638;BME280;59485;43.542;-5.676;2023-02-13T07:52:09;102875.53;;;6.69;100.00
71638;BME280;59485;43.542;-5.676;2023-02-13T07:54:35;102876.03;;;6.74;100.00
71638;BME280;59485;43.542;-5.676;2023-02-13T07:57:01;102873.19;;;6.76;100.00
71638;BME280;59485;43.542;-5.676;2023-02-13T07:59:29;102878.28;;;6.81;100.00
71638;BME280;59485;43.542;-5.676;2023-02-13T08:01:54;102872.63;;;6.84;100.00
71638;BME280;59485;43.542;-5.676;2023-02-13T08:04:20;102885.94;;;6.88;100.00
71638;BME280;59485;43.542;-5.676;2023-02-13T08:06:45;102881.19;;;6.90;100.00
71638;BME280;59485;43.542;-5.676;2023-02-13T08:09:16;102880.75;;;6.96;100.00
71638;BME280;59485;43.542;-5.676;2023-02-13T08:12:00;102875.94;;;7.00;100.00
71638;BME280;59485;43.542;-5.676;2023-02-13T08:14:26;102882.81;;;7.05;100.00
71638;BME280;59485;43.542;-5.676;2023-02-13T08:16:52;102886.25;;;7.07;100.00
71638;BME280;59485;43.542;-5.676;2023-02-13T08:19:17;102888.75;;;7.10;100.00
71638;BME280;59485;43.542;-5.676;2023-02-13T08:21:43;102883.09;;;7.13;100.00
71638;BME280;59485;43.542;-5.676;2023-02-13T08:24:08;102883.69;;;7.17;100.00
71638;BME280;59485;43.542;-5.676;2023-02-13T08:26:36;102882.50;;;7.21;100.00
71638;BME280;59485;43.542;-5.676;2023-02-13T08:29:02;102889.59;;;7.24;100.00
71638;BME280;59485;43.542;-5.676;2023-02-13T08:31:27;102887.38;;;7.29;100.00
71638;BME280;59485;43.542;-5.676;2023-02-13T08:33:54;102896.41;;;7.29;100.00
71638;BME280;59485;43.542;-5.676;2023-02-13T08:36:19;102885.91;;;7.36;100.00
71638;BME280;59485;43.542;-5.676;2023-02-13T08:38:45;102889.88;;;7.43;100.00
71638;BME280;59485;43.542;-5.676;2023-02-13T08:41:10;102894.03;;;7.48;100.00
71638;BME280;59485;43.542;-5.676;2023-02-13T08:43:36;102881.00;;;7.52;100.00
71638;BME280;59485;43.542;-5.676;2023-02-13T08:46:01;102886.88;;;7.59;100.00
71638;BME280;59485;43.542;-5.676;2023-02-13T08:48:26;102889.22;;;7.63;100.00
71638;BME280;59485;43.542;-5.676;2023-02-13T08:50:52;102888.78;;;7.69;100.00
71638;BME280;59485;43.542;-5.676;2023-02-13T08:53:17;102892.97;;;7.73;100.00
71638;BME280;59485;43.542;-5.676;2023-02-13T08:58:12;102889.31;;;7.85;100.00
71638;BME280;59485;43.542;-5.676;2023-02-13T09:00:38;102900.72;;;7.90;100.00
71638;BME280;59485;43.542;-5.676;2023-02-13T09:03:03;102900.00;;;8.00;100.00
71638;BME280;59485;43.542;-5.676;2023-02-13T09:05:29;102907.69;;;8.06;100.00
71638;BME280;59485;43.542;-5.676;2023-02-13T09:08:00;102898.16;;;8.11;100.00
71638;BME280;59485;43.542;-5.676;2023-02-13T09:10:27;102891.97;;;8.20;100.00
71638;BME280;59485;43.542;-5.676;2023-02-13T09:12:52;102898.44;;;8.31;100.00
71638;BME280;59485;43.542;-5.676;2023-02-13T09:15:17;102897.72;;;8.40;100.00
71638;BME280;59485;43.542;-5.676;2023-02-13T09:17:43;102905.88;;;8.51;100.00
71638;BME280;59485;43.542;-5.676;2023-02-13T09:20:08;102903.28;;;8.60;100.00
71638;BME280;59485;43.542;-5.676;2023-02-13T09:22:34;102899.06;;;8.68;100.00
71638;BME280;59485;43.542;-5.676;2023-02-13T09:24:59;102909.25;;;8.77;100.00
71638;BME280;59485;43.542;-5.676;2023-02-13T09:27:28;102899.25;;;8.87;100.00
71638;BME280;59485;43.542;-5.676;2023-02-13T09:29:53;102904.13;;;8.94;100.00
71638;BME280;59485;43.542;-5.676;2023-02-13T09:32:18;102910.69;;;9.03;100.00
71638;BME280;59485;43.542;-5.676;2023-02-13T09:34:44;102913.78;;;9.10;100.00
71638;BME280;59485;43.542;-5.676;2023-02-13T09:37:09;102916.75;;;9.18;100.00
71638;BME280;59485;43.542;-5.676;2023-02-13T09:39:34;102913.34;;;9.25;100.00
71638;BME280;59485;43.542;-5.676;2023-02-13T09:42:00;102912.31;;;9.37;100.00
71638;BME280;59485;43.542;-5.676;2023-02-13T09:44:36;102919.75;;;9.47;100.00
71638;BME280;59485;43.542;-5.676;2023-02-13T09:49:35;102918.19;;;9.65;100.00
71638;BME280;59485;43.542;-5.676;2023-02-13T09:52:02;102910.91;;;9.75;100.00
71638;BME280;59485;43.542;-5.676;2023-02-13T09:54:27;102910.25;;;9.83;100.00
71638;BME280;59485;43.542;-5.676;2023-02-13T09:57:00;102914.06;;;9.91;100.00
71638;BME280;59485;43.542;-5.676;2023-02-13T09:59:49;102917.88;;;10.00;100.00
71638;BME280;59485;43.542;-5.676;2023-02-13T10:02:28;102915.19;;;10.09;100.00
71638;BME280;59485;43.542;-5.676;2023-02-13T10:05:03;102910.66;;;10.20;100.00
71638;BME280;59485;43.542;-5.676;2023-02-13T10:15:36;102899.69;;;10.50;100.00
71638;BME280;59485;43.542;-5.676;2023-02-13T10:18:05;102900.88;;;10.57;100.00
71638;BME280;59485;43.542;-5.676;2023-02-13T10:22:59;102900.38;;;10.73;100.00
71638;BME280;59485;43.542;-5.676;2023-02-13T10:25:29;102902.41;;;10.80;100.00
71638;BME280;59485;43.542;-5.676;2023-02-13T10:28:02;102899.97;;;10.87;100.00
71638;BME280;59485;43.542;-5.676;2023-02-13T10:30:30;102904.03;;;10.93;100.00
71638;BME280;59485;43.542;-5.676;2023-02-13T10:38:13;102906.81;;;11.21;100.00
71638;BME280;59485;43.542;-5.676;2023-02-13T10:40:41;102897.31;;;11.25;100.00
71638;BME280;59485;43.542;-5.676;2023-02-13T10:43:10;102897.31;;;11.35;100.00
71638;BME280;59485;43.542;-5.676;2023-02-13T10:58:21;102884.72;;;12.00;100.00
71638;BME280;59485;43.542;-5.676;2023-02-13T11:03:19;102887.66;;;12.26;100.00
71638;BME280;59485;43.542;-5.676;2023-02-13T11:05:46;102887.34;;;12.38;100.00
71638;BME280;59485;43.542;-5.676;2023-02-13T11:08:31;102886.75;;;12.45;100.00
71638;BME280;59485;43.542;-5.676;2023-02-13T11:10:57;102889.31;;;12.56;100.00
71638;BME280;59485;43.542;-5.676;2023-02-13T11:13:23;102882.88;;;12.65;100.00
71638;BME280;59485;43.542;-5.676;2023-02-13T11:16:10;102877.91;;;12.78;100.00
71638;BME280;59485;43.542;-5.676;2023-02-13T11:18:42;102885.25;;;12.87;100.00
71638;BME280;59485;43.542;-5.676;2023-02-13T11:21:13;102877.22;;;12.94;100.00
71638;BME280;59485;43.542;-5.676;2023-02-13T11:23:44;102879.78;;;13.05;100.00
71638;BME280;59485;43.542;-5.676;2023-02-13T11:28:46;102883.03;;;13.18;100.00
71638;BME280;59485;43.542;-5.676;2023-02-13T11:31:35;102876.44;;;13.29;100.00
71638;BME280;59485;43.542;-5.676;2023-02-13T11:33:59;102874.00;;;13.43;100.00
71638;BME280;59485;43.542;-5.676;2023-02-13T11:36:41;102872.03;;;13.53;100.00
71638;BME280;59485;43.542;-5.676;2023-02-13T11:39:16;102868.88;;;13.66;100.00
71638;BME280;59485;43.542;-5.676;2023-02-13T11:41:43;102862.78;;;13.80;100.00
71638;BME280;59485;43.542;-5.676;2023-02-13T11:46:47;102855.31;;;13.99;100.00
71638;BME280;59485;43.542;-5.676;2023-02-13T11:49:23;102857.81;;;14.10;100.00
71638;BME280;59485;43.542;-5.676;2023-02-13T11:51:50;102850.66;;;14.25;100.00
71638;BME280;59485;43.542;-5.676;2023-02-13T11:54:35;102863.47;;;14.34;100.00
71638;BME280;59485;43.542;-5.676;2023-02-13T11:57:16;102853.94;;;14.46;100.00
71638;BME280;59485;43.542;-5.676;2023-02-13T11:59:43;102850.84;;;14.49;100.00
71638;BME280;59485;43.542;-5.676;2023-02-13T12:02:19;102843.13;;;14.61;100.00
71638;BME280;59485;43.542;-5.676;2023-02-13T12:04:45;102842.28;;;14.69;100.00
71638;BME280;59485;43.542;-5.676;2023-02-13T12:07:16;102837.66;;;14.77;100.00
71638;BME280;59485;43.542;-5.676;2023-02-13T12:09:43;102839.19;;;14.72;100.00
71638;BME280;59485;43.542;-5.676;2023-02-13T12:12:15;102844.56;;;14.81;100.00
71638;BME280;59485;43.542;-5.676;2023-02-13T12:14:42;102840.94;;;14.81;100.00
71638;BME280;59485;43.542;-5.676;2023-02-13T12:17:16;102829.22;;;14.87;100.00
71638;BME280;59485;43.542;-5.676;2023-02-13T12:19:44;102832.00;;;14.87;100.00
71638;BME280;59485;43.542;-5.676;2023-02-13T12:24:47;102833.94;;;15.02;100.00
71638;BME280;59485;43.542;-5.676;2023-02-13T12:37:57;102823.06;;;15.09;100.00
71638;BME280;59485;43.542;-5.676;2023-02-13T12:45:41;102816.16;;;15.05;100.00
71638;BME280;59485;43.542;-5.676;2023-02-13T12:58:16;102809.16;;;14.69;100.00
71638;BME280;59485;43.542;-5.676;2023-02-13T13:16:44;102767.44;;;14.88;100.00
71638;BME280;59485;43.542;-5.676;2023-02-13T13:29:03;102764.19;;;15.09;100.00
71638;BME280;59485;43.542;-5.676;2023-02-13T13:31:33;102764.75;;;15.20;100.00
71638;BME280;59485;43.542;-5.676;2023-02-13T13:34:00;102759.88;;;15.22;100.00
71638;BME280;59485;43.542;-5.676;2023-02-13T13:36:33;102757.66;;;15.18;100.00
71638;BME280;59485;43.542;-5.676;2023-02-13T13:39:05;102755.75;;;15.26;100.00
71638;BME280;59485;43.542;-5.676;2023-02-13T13:44:04;102754.53;;;15.29;100.00
71638;BME280;59485;43.542;-5.676;2023-02-13T13:49:13;102744.34;;;15.21;100.00
71638;BME280;59485;43.542;-5.676;2023-02-13T13:51:43;102744.00;;;15.24;100.00
71638;BME280;59485;43.542;-5.676;2023-02-13T14:05:16;102733.09;;;15.39;100.00
71638;BME280;59485;43.542;-5.676;2023-02-13T14:07:34;102723.09;;;15.38;100.00
71638;BME280;59485;43.542;-5.676;2023-02-13T14:10:00;102718.78;;;15.35;100.00
71638;BME280;59485;43.542;-5.676;2023-02-13T14:14:54;102712.56;;;15.33;100.00
71638;BME280;59485;43.542;-5.676;2023-02-13T14:20:14;102714.81;;;15.22;100.00
71638;BME280;59485;43.542;-5.676;2023-02-13T14:22:41;102706.34;;;15.31;100.00
71638;BME280;59485;43.542;-5.676;2023-02-13T14:25:19;102715.66;;;15.22;100.00
71638;BME280;59485;43.542;-5.676;2023-02-13T14:27:53;102707.91;;;15.34;100.00
71638;BME280;59485;43.542;-5.676;2023-02-13T14:30:24;102710.16;;;15.38;100.00
71638;BME280;59485;43.542;-5.676;2023-02-13T14:32:50;102711.66;;;15.49;100.00
71638;BME280;59485;43.542;-5.676;2023-02-13T14:35:17;102705.66;;;15.54;100.00
71638;BME280;59485;43.542;-5.676;2023-02-13T14:37:51;102712.91;;;15.63;100.00
71638;BME280;59485;43.542;-5.676;2023-02-13T14:42:44;102711.88;;;15.56;100.00
71638;BME280;59485;43.542;-5.676;2023-02-13T14:45:17;102717.41;;;15.56;100.00
71638;BME280;59485;43.542;-5.676;2023-02-13T14:47:45;102713.41;;;15.50;100.00
71638;BME280;59485;43.542;-5.676;2023-02-13T14:50:17;102718.06;;;15.58;100.00
71638;BME280;59485;43.542;-5.676;2023-02-13T14:52:43;102721.53;;;15.60;100.00
71638;BME280;59485;43.542;-5.676;2023-02-13T14:55:14;102725.16;;;15.68;100.00
71638;BME280;59485;43.542;-5.676;2023-02-13T14:57:42;102710.47;;;15.44;100.00
71638;BME280;59485;43.542;-5.676;2023-02-13T15:02:41;102720.84;;;15.33;100.00
71638;BME280;59485;43.542;-5.676;2023-02-13T15:05:13;102722.06;;;15.31;100.00
71638;BME280;59485;43.542;-5.676;2023-02-13T15:07:52;102720.16;;;15.23;100.00
71638;BME280;59485;43.542;-5.676;2023-02-13T15:13:04;102712.91;;;15.38;100.00
71638;BME280;59485;43.542;-5.676;2023-02-13T15:15:34;102706.53;;;15.38;100.00
71638;BME280;59485;43.542;-5.676;2023-02-13T15:18:02;102707.41;;;15.55;100.00
71638;BME280;59485;43.542;-5.676;2023-02-13T15:20:32;102700.13;;;15.54;100.00
71638;BME280;59485;43.542;-5.676;2023-02-13T15:22:58;102695.78;;;15.51;100.00
71638;BME280;59485;43.542;-5.676;2023-02-13T15:25:33;102707.38;;;15.63;100.00
71638;BME280;59485;43.542;-5.676;2023-02-13T15:28:01;102702.88;;;15.62;100.00
71638;BME280;59485;43.542;-5.676;2023-02-13T15:30:29;102702.84;;;15.70;100.00
71638;BME280;59485;43.542;-5.676;2023-02-13T15:32:56;102702.31;;;15.83;100.00
71638;BME280;59485;43.542;-5.676;2023-02-13T15:35:30;102699.44;;;16.07;100.00
71638;BME280;59485;43.542;-5.676;2023-02-13T15:37:56;102693.09;;;16.29;100.00
71638;BME280;59485;43.542;-5.676;2023-02-13T15:40:23;102699.78;;;16.43;100.00
71638;BME280;59485;43.542;-5.676;2023-02-13T15:42:51;102703.88;;;16.55;100.00
71638;BME280;59485;43.542;-5.676;2023-02-13T15:45:17;102705.19;;;16.36;100.00
71638;BME280;59485;43.542;-5.676;2023-02-13T15:47:45;102711.50;;;16.14;100.00
71638;BME280;59485;43.542;-5.676;2023-02-13T15:50:52;102708.47;;;15.93;100.00
71638;BME280;59485;43.542;-5.676;2023-02-13T15:52:59;102715.22;;;15.98;100.00
71638;BME280;59485;43.542;-5.676;2023-02-13T15:55:28;102720.06;;;15.96;100.00
71638;BME280;59485;43.542;-5.676;2023-02-13T15:57:54;102721.97;;;15.96;100.00
71638;BME280;59485;43.542;-5.676;2023-02-13T16:00:25;102719.91;;;15.90;100.00
71638;BME280;59485;43.542;-5.676;2023-02-13T16:02:53;102723.69;;;15.97;100.00
71638;BME280;59485;43.542;-5.676;2023-02-13T16:05:18;102723.16;;;16.01;100.00
71638;BME280;59485;43.542;-5.676;2023-02-13T16:07:52;102716.78;;;16.01;100.00
71638;BME280;59485;43.542;-5.676;2023-02-13T16:10:32;102707.22;;;16.03;100.00
71638;BME280;59485;43.542;-5.676;2023-02-13T16:12:59;102707.44;;;15.94;100.00
71638;BME280;59485;43.542;-5.676;2023-02-13T16:15:27;102701.72;;;15.95;100.00
71638;BME280;59485;43.542;-5.676;2023-02-13T16:17:53;102696.75;;;15.91;100.00
71638;BME280;59485;43.542;-5.676;2023-02-13T16:20:26;102688.94;;;15.94;100.00
71638;BME280;59485;43.542;-5.676;2023-02-13T16:23:02;102691.03;;;15.92;100.00
71638;BME280;59485;43.542;-5.676;2023-02-13T16:25:37;102689.09;;;15.93;100.00
71638;BME280;59485;43.542;-5.676;2023-02-13T16:28:25;102687.56;;;15.98;100.00
71638;BME280;59485;43.542;-5.676;2023-02-13T16:30:52;102690.25;;;15.67;100.00
71638;BME280;59485;43.542;-5.676;2023-02-13T16:33:21;102680.41;;;15.65;100.00
71638;BME280;59485;43.542;-5.676;2023-02-13T16:35:48;102676.25;;;15.69;100.00
71638;BME280;59485;43.542;-5.676;2023-02-13T16:38:48;102688.38;;;15.60;100.00
71638;BME280;59485;43.542;-5.676;2023-02-13T16:43:44;102683.22;;;15.57;100.00
71638;BME280;59485;43.542;-5.676;2023-02-13T16:48:35;102678.72;;;15.56;100.00
71638;BME280;59485;43.542;-5.676;2023-02-13T16:51:01;102684.91;;;15.50;100.00
71638;BME280;59485;43.542;-5.676;2023-02-13T16:53:26;102696.97;;;15.49;100.00
71638;BME280;59485;43.542;-5.676;2023-02-13T16:55:55;102697.16;;;15.39;100.00
71638;BME280;59485;43.542;-5.676;2023-02-13T16:58:21;102693.38;;;15.32;100.00
71638;BME280;59485;43.542;-5.676;2023-02-13T17:00:48;102701.00;;;15.30;100.00